Main page
METAR-TAF:

METAR-TAF

Airports :

Kephalonia International Airport

Kefalonia, Greece

latitude: 38-07N, longitude: 020-30E, elevation: 19 m

Current weather observation

The report was made 1 hour and 6 minutes ago, at 11:50 UTC
Wind 4 kt from the West
Temperature 30°C
Humidity 66%
Pressure 1017 hPa
Visibility 10 km or more
Few clouds at a height of 1600 ft

METAR: LGKF 221150Z 27004KT 9999 FEW016 30/23 Q1017

Time: 15:56 (12:56 UTC)

Forecast

The report was made 1 hour and 56 minutes ago, at 11:00 UTC
Forecast valid from 22 at 12 UTC to 22 at 21 UTC
Wind 10 kt from the Northwest
Visibility 10 km or more
no clouds below 1500 m and no cumulonimbus

TAF: LGKF 221100Z 2212/2221 31010KT CAVOK

Weather observations and forecasts of more than 4000 airports (METAR and TAF reports).

The available stations are represented by yellow and red dots on the map.

Hover mouse over dot to see the name of the station.

Then click to see weather observations and forecasts.

To change the map : click on the green buttons with a black cross to zoom in, on the green button with a dash to zoom out, or on the green arrows for adjacent maps.


METAR-TAF: